Time,TemperatureF,DewpointF,PressureIn,WindDirection,WindDirectionDegrees,WindSpeedMPH,WindSpeedGustMPH,Humidity,HourlyPrecipIn,Conditions,Clouds,dailyrainin,SoftwareType,DateUTC
2013-09-19 03:51:00,41.0,39.0,-100.00,SSE,165,1.0,2.0,94,-99.99,,,-99.99,,2013-09-19 03:51:00,
2013-09-19 04:01:00,41.0,40.0,-100.00,NNE,28,0.0,2.0,95,-99.99,,,-99.99,,2013-09-19 04:01:00,
2013-09-19 04:14:00,41.0,40.0,-100.00,ENE,57,1.0,3.0,95,-99.99,,,-99.99,,2013-09-19 04:14:00,
2013-09-19 04:25:00,41.0,39.0,-100.00,SSE,165,1.0,2.0,94,-99.99,,,-99.99,,2013-09-19 04:25:00,
2013-09-19 04:33:00,41.0,39.0,-100.00,SSE,165,1.0,2.0,94,-99.99,,,-99.99,,2013-09-19 04:33:00,
2013-09-19 04:43:00,41.0,39.0,-100.00,SSE,165,1.0,2.0,94,-99.99,,,-99.99,,2013-09-19 04:43:00,
2013-09-19 05:23:00,41.0,37.0,-100.00,SE,138,2.0,9.0,87,-99.99,,,-99.99,,2013-09-19 05:23:00,
2013-09-19 05:34:00,41.0,37.0,-100.00,SE,138,2.0,9.0,87,-99.99,,,-99.99,,2013-09-19 05:34:00,
2013-09-19 05:43:00,41.0,37.0,-100.00,SE,138,2.0,9.0,87,-99.99,,,-99.99,,2013-09-19 05:43:00,
2013-09-19 05:52:00,41.0,36.0,-100.00,South,172,5.0,12.0,83,-99.99,,,-99.99,,2013-09-19 05:52:00,
2013-09-19 06:12:00,41.0,36.0,-100.00,SSE,165,3.0,11.0,83,-99.99,,,-99.99,,2013-09-19 06:12:00,
2013-09-19 06:22:00,41.0,36.0,-100.00,South,171,5.0,12.0,82,-99.99,,,-99.99,,2013-09-19 06:22:00,
2013-09-19 06:43:00,40.0,36.0,-100.00,SE,143,3.0,14.0,85,-99.99,,,-99.99,,2013-09-19 06:43:00,
2013-09-19 06:52:00,40.0,36.0,-100.00,SE,132,4.0,10.0,86,-99.99,,,-99.99,,2013-09-19 06:52:00,
2013-09-19 07:11:00,40.0,37.0,-100.00,SSE,158,1.0,3.0,88,-99.99,,,-99.99,,2013-09-19 07:11:00,
2013-09-19 07:21:00,40.0,36.0,-100.00,South,175,0.0,3.0,87,-99.99,,,-99.99,,2013-09-19 07:21:00,
2013-09-19 07:42:00,39.0,36.0,-100.00,SE,135,0.0,5.0,89,-99.99,,,-99.99,,2013-09-19 07:42:00,
2013-09-19 07:52:00,39.0,36.0,-100.00,SE,135,0.0,5.0,89,-99.99,,,-99.99,,2013-09-19 07:52:00,
2013-09-19 08:11:00,40.0,36.0,-100.00,South,187,1.0,6.0,86,-99.99,,,-99.99,,2013-09-19 08:11:00,
2013-09-19 08:21:00,39.0,37.0,-100.00,SSE,148,2.0,5.0,94,-99.99,,,-99.99,,2013-09-19 08:21:00,
2013-09-19 08:42:00,39.0,38.0,-100.00,NE,41,0.0,2.0,95,-99.99,,,-99.99,,2013-09-19 08:42:00,
2013-09-19 08:51:00,39.0,38.0,-100.00,SW,227,2.0,3.0,97,-99.99,,,-99.99,,2013-09-19 08:51:00,
2013-09-19 08:52:00,39.0,38.0,-100.00,NE,41,0.0,2.0,95,-99.99,,,-99.99,,2013-09-19 08:52:00,
2013-09-19 09:01:00,39.0,38.0,-100.00,NE,41,0.0,2.0,95,-99.99,,,-99.99,,2013-09-19 09:01:00,
2013-09-19 09:21:00,39.0,38.0,-100.00,SW,227,2.0,3.0,97,-99.99,,,-99.99,,2013-09-19 09:21:00,
2013-09-19 09:33:00,39.0,38.0,-100.00,SW,227,2.0,3.0,97,-99.99,,,-99.99,,2013-09-19 09:33:00,
2013-09-19 09:42:00,39.0,38.0,-100.00,SW,227,2.0,3.0,97,-99.99,,,-99.99,,2013-09-19 09:42:00,
2013-09-19 10:43:00,39.0,35.0,-100.00,SSE,160,3.0,8.0,86,-99.99,,,-99.99,,2013-09-19 10:43:00,
2013-09-19 10:52:00,39.0,35.0,-100.00,SSE,164,4.0,10.0,86,-99.99,,,-99.99,,2013-09-19 10:52:00,
2013-09-19 11:11:00,39.0,35.0,-100.00,SE,145,4.0,9.0,87,-99.99,,,-99.99,,2013-09-19 11:11:00,
2013-09-19 11:22:00,39.0,35.0,-100.00,SE,146,3.0,10.0,86,-99.99,,,-99.99,,2013-09-19 11:22:00,
2013-09-19 11:42:00,39.0,35.0,-100.00,SSE,155,0.0,5.0,87,-99.99,,,-99.99,,2013-09-19 11:42:00,
2013-09-19 11:52:00,39.0,35.0,-100.00,SSE,155,0.0,5.0,87,-99.99,,,-99.99,,2013-09-19 11:52:00,
2013-09-19 12:11:00,38.0,35.0,-100.00,South,183,0.0,8.0,89,-99.99,,,-99.99,,2013-09-19 12:11:00,
2013-09-19 12:21:00,38.0,35.0,-100.00,ENE,68,0.0,1.0,90,-99.99,,,-99.99,,2013-09-19 12:21:00,
2013-09-19 12:43:00,38.0,36.0,-100.00,NE,55,0.0,2.0,93,-99.99,,,-99.99,,2013-09-19 12:43:00,
2013-09-19 12:52:00,38.0,36.0,-100.00,NNE,25,0.0,1.0,93,-99.99,,,-99.99,,2013-09-19 12:52:00,
2013-09-19 13:11:00,38.0,37.0,-100.00,North,10,0.0,1.0,95,-99.99,,,-99.99,,2013-09-19 13:11:00,
2013-09-19 13:21:00,38.0,37.0,-100.00,North,10,0.0,1.0,95,-99.99,,,-99.99,,2013-09-19 13:21:00,
2013-09-19 13:43:00,37.0,36.0,-100.00,ENE,71,0.0,1.0,96,-99.99,,,-99.99,,2013-09-19 13:43:00,
2013-09-19 13:52:00,37.0,36.0,-100.00,ENE,71,0.0,1.0,96,-99.99,,,-99.99,,2013-09-19 13:52:00,
2013-09-19 14:02:00,37.0,36.0,-100.00,ENE,71,0.0,1.0,96,-99.99,,,-99.99,,2013-09-19 14:02:00,
2013-09-19 14:52:00,37.0,36.0,-100.00,WNW,290,0.0,2.0,98,-99.99,,,-99.99,,2013-09-19 14:52:00,
2013-09-19 15:11:00,36.0,35.0,-100.00,NNE,18,1.0,3.0,98,-99.99,,,-99.99,,2013-09-19 15:11:00,
2013-09-19 15:22:00,36.0,35.0,-100.00,NNE,18,1.0,3.0,98,-99.99,,,-99.99,,2013-09-19 15:22:00,
2013-09-19 15:43:00,36.0,35.0,-100.00,SSE,157,1.0,4.0,98,-99.99,,,-99.99,,2013-09-19 15:43:00,
2013-09-19 15:53:00,36.0,35.0,-100.00,SSE,157,1.0,4.0,98,-99.99,,,-99.99,,2013-09-19 15:53:00,
2013-09-19 16:03:00,36.0,35.0,-100.00,SSE,157,1.0,4.0,98,-99.99,,,-99.99,,2013-09-19 16:03:00,
2013-09-19 16:24:00,37.0,35.0,-100.00,SE,140,0.0,2.0,94,-99.99,,,-99.99,,2013-09-19 16:24:00,
2013-09-19 16:33:00,37.0,35.0,-100.00,SE,140,0.0,2.0,94,-99.99,,,-99.99,,2013-09-19 16:33:00,
2013-09-19 16:42:00,37.0,35.0,-100.00,SE,140,0.0,2.0,94,-99.99,,,-99.99,,2013-09-19 16:42:00,
2013-09-19 16:52:00,37.0,35.0,-100.00,East,98,2.0,5.0,92,-99.99,,,-99.99,,2013-09-19 16:52:00,
2013-09-19 17:12:00,37.0,35.0,-100.00,SW,214,0.0,3.0,92,-99.99,,,-99.99,,2013-09-19 17:12:00,
2013-09-19 17:23:00,37.0,35.0,-100.00,SW,214,0.0,3.0,92,-99.99,,,-99.99,,2013-09-19 17:23:00,
2013-09-19 17:34:00,37.0,35.0,-100.00,SW,214,0.0,3.0,92,-99.99,,,-99.99,,2013-09-19 17:34:00,
2013-09-19 17:51:00,37.0,36.0,-100.00,NNW,336,0.0,0.0,95,-99.99,,,-99.99,,2013-09-19 17:51:00,
2013-09-19 17:53:00,37.0,35.0,-100.00,SW,222,0.0,2.0,94,-99.99,,,-99.99,,2013-09-19 17:53:00,
2013-09-19 18:02:00,37.0,35.0,-100.00,SW,222,0.0,2.0,94,-99.99,,,-99.99,,2013-09-19 18:02:00,
2013-09-19 18:11:00,37.0,35.0,-100.00,SW,222,0.0,2.0,94,-99.99,,,-99.99,,2013-09-19 18:11:00,
2013-09-19 18:22:00,37.0,36.0,-100.00,NNW,336,0.0,0.0,95,-99.99,,,-99.99,,2013-09-19 18:22:00,
2013-09-19 18:32:00,37.0,36.0,-100.00,NNW,336,0.0,0.0,95,-99.99,,,-99.99,,2013-09-19 18:32:00,
2013-09-19 18:42:00,37.0,36.0,-100.00,NNW,336,0.0,0.0,95,-99.99,,,-99.99,,2013-09-19 18:42:00,
2013-09-19 19:21:00,36.0,35.0,-100.00,NE,45,8.0,12.0,97,-99.99,,,-99.99,,2013-09-19 19:21:00,
2013-09-19 19:42:00,37.0,36.0,-100.00,NE,36,6.0,11.0,98,-99.99,,,-99.99,,2013-09-19 19:42:00,
2013-09-19 19:52:00,36.0,35.0,-100.00,NNE,30,9.0,16.0,98,-99.99,,,-99.99,,2013-09-19 19:52:00,
2013-09-19 20:12:00,36.0,35.0,-100.00,NNE,31,11.0,20.0,98,-99.99,,,-99.99,,2013-09-19 20:12:00,
2013-09-19 20:21:00,36.0,35.0,-100.00,NNE,31,11.0,20.0,98,-99.99,,,-99.99,,2013-09-19 20:21:00,
2013-09-19 20:32:00,36.0,35.0,-100.00,NNE,31,11.0,20.0,98,-99.99,,,-99.99,,2013-09-19 20:32:00,
2013-09-19 20:52:00,37.0,36.0,-100.00,NE,38,9.0,18.0,96,-99.99,,,-99.99,,2013-09-19 20:52:00,
2013-09-19 21:02:00,37.0,36.0,-100.00,NE,38,9.0,18.0,96,-99.99,,,-99.99,,2013-09-19 21:02:00,
2013-09-19 21:11:00,37.0,36.0,-100.00,NE,38,9.0,18.0,96,-99.99,,,-99.99,,2013-09-19 21:11:00,
2013-09-19 21:22:00,42.0,37.0,-100.00,NNE,32,9.0,14.0,82,-99.99,,,-99.99,,2013-09-19 21:22:00,
2013-09-19 21:44:00,42.0,37.0,-100.00,NE,40,5.0,13.0,81,-99.99,,,-99.99,,2013-09-19 21:44:00,
2013-09-19 21:55:00,43.0,37.0,-100.00,NNE,33,9.0,16.0,78,-99.99,,,-99.99,,2013-09-19 21:55:00,
2013-09-19 22:04:00,43.0,37.0,-100.00,NNE,33,9.0,16.0,78,-99.99,,,-99.99,,2013-09-19 22:04:00,
2013-09-19 22:14:00,43.0,37.0,-100.00,NNE,33,9.0,16.0,78,-99.99,,,-99.99,,2013-09-19 22:14:00,
2013-09-19 22:24:00,44.0,36.0,-100.00,NNE,25,8.0,17.0,72,-99.99,,,-99.99,,2013-09-19 22:24:00,
2013-09-19 22:53:00,44.0,34.0,-100.00,NNE,21,8.0,16.0,67,-99.99,,,-99.99,,2013-09-19 22:53:00,
2013-09-19 23:03:00,44.0,34.0,-100.00,NNE,21,8.0,16.0,67,-99.99,,,-99.99,,2013-09-19 23:03:00,
2013-09-19 23:21:00,44.0,30.0,-100.00,NNE,20,11.0,20.0,57,-99.99,,,-99.99,,2013-09-19 23:21:00,
2013-09-19 23:43:00,44.0,31.0,-100.00,NNE,15,11.0,23.0,60,-99.99,,,-99.99,,2013-09-19 23:43:00,
2013-09-19 23:53:00,44.0,30.0,-100.00,NNE,20,11.0,20.0,57,-99.99,,,-99.99,,2013-09-19 23:53:00,